Date,TemperatureHighF,TemperatureAvgF,TemperatureLowF,DewpointHighF,DewpointAvgF,DewpointLowF,HumidityHigh,HumidityAvg,HumidityLow,PressureMaxIn,PressureMinIn,WindSpeedMaxMPH,WindSpeedAvgMPH,GustSpeedMaxMPH,PrecipitationSumIn
2013-6-1,72.3,66.9,61.7,67.1,64.3,59.3,96,91,81,29.91,29.74,16,7,28,0.65
2013-6-2,68.3,63.5,59.9,61.9,59.3,56.5,93,86,77,30.03,29.86,10,3,16,0.00
2013-6-3,68.3,60.2,53.2,57.0,53.2,48.8,95,79,58,30.11,30.01,11,3,15,0.00
2013-6-4,72.9,63.7,50.9,62.0,56.6,49.5,96,79,60,30.12,30.01,8,2,14,0.00
2013-6-5,80.2,70.9,60.6,67.2,62.1,58.4,93,75,49,30.04,29.84,4,1,10,0.00
2013-6-6,80.0,71.7,65.6,65.7,63.5,59.2,92,76,50,29.85,29.79,10,3,16,0.00
2013-6-7,75.2,67.2,60.9,64.5,60.2,56.4,92,79,60,29.89,29.82,11,4,18,0.00
2013-6-8,79.0,68.6,57.1,62.5,59.2,55.7,96,74,49,29.98,29.89,6,0,12,0.00
2013-6-9,81.0,69.9,61.3,66.3,61.7,58.6,96,77,52,29.98,29.80,12,3,19,0.32
2013-6-10,77.9,68.2,61.8,67.3,63.5,60.6,96,86,61,29.92,29.78,10,3,14,0.09
2013-6-11,87.9,75.4,58.8,76.0,68.7,57.7,97,81,64,29.99,29.85,11,3,19,0.00
2013-6-12,91.3,83.8,74.5,77.4,74.8,72.0,92,75,60,29.94,29.69,17,6,29,0.00
2013-6-13,83.7,76.2,63.6,73.8,64.4,57.1,89,68,41,29.98,29.70,14,5,21,0.00
2013-6-14,82.3,70.9,58.4,63.2,59.3,56.1,93,69,46,30.10,29.93,0,0,0,0.00
2013-6-15,85.9,74.2,62.2,72.6,64.9,58.8,92,74,53,30.10,29.92,12,3,21,0.22
2013-6-16,80.7,72.1,67.0,74.4,69.4,65.2,96,92,80,30.03,29.92,9,2,16,0.45
2013-6-17,86.4,73.2,65.6,75.4,69.3,63.1,96,88,61,29.95,29.85,20,1,44,1.18
2013-6-18,87.3,73.7,62.6,72.5,66.4,61.4,97,80,48,29.97,29.87,6,1,15,0.01
2013-6-19,84.8,73.3,64.0,71.5,66.5,62.2,95,80,54,30.07,29.97,2,0,13,0.00
2013-6-20,88.3,78.4,68.6,71.6,68.1,65.3,92,72,50,30.13,30.05,4,0,11,0.00
2013-6-21,89.4,80.8,71.3,74.0,70.4,67.2,88,72,50,30.12,30.01,12,4,19,0.00
2013-6-22,88.2,75.7,67.6,76.3,70.2,66.0,95,84,60,30.12,29.98,12,3,20,0.22
2013-6-23,77.9,70.0,66.8,74.1,67.8,65.4,96,93,78,30.10,29.99,14,3,26,0.49
2013-6-24,88.1,76.3,67.2,77.9,71.7,66.0,96,86,66,30.10,29.95,11,5,18,0.03
2013-6-25,90.0,81.5,73.0,77.8,73.9,70.8,93,79,62,29.98,29.80,11,5,20,0.00
2013-6-26,84.8,78.0,71.8,77.8,73.4,66.3,94,86,77,29.88,29.68,23,6,37,0.20
2013-6-27,91.2,80.5,72.4,76.6,72.3,66.8,96,78,48,29.85,29.75,10,2,23,0.01
2013-6-28,86.7,79.1,72.6,72.2,66.6,57.2,92,68,40,29.82,29.67,8,2,17,0.00
2013-6-29,79.5,71.3,65.8,67.5,64.0,61.3,94,78,61,29.70,29.61,9,2,22,0.01
2013-6-30,73.8,68.2,64.3,67.4,63.9,61.2,94,86,73,29.87,29.70,14,6,22,0.40